createdAt,value
2018-12-31T00:01:29.662Z,7.40
2018-12-31T00:04:07.099Z,7.40
2018-12-31T00:06:37.014Z,7.40
2018-12-31T00:09:07.376Z,7.40
2018-12-31T00:11:36.919Z,7.40
2018-12-31T00:14:06.801Z,7.40
2018-12-31T00:16:36.681Z,7.40
2018-12-31T00:19:06.206Z,7.40
2018-12-31T00:21:36.292Z,7.40
2018-12-31T00:24:05.778Z,7.40
2018-12-31T00:26:35.269Z,7.40
2018-12-31T00:29:05.123Z,7.40
2018-12-31T00:31:34.609Z,7.40
2018-12-31T00:34:04.079Z,7.40
2018-12-31T00:36:33.876Z,7.50
2018-12-31T00:39:05.321Z,7.50
2018-12-31T00:41:34.797Z,7.50
2018-12-31T00:44:04.922Z,7.50
2018-12-31T00:46:34.415Z,7.50
2018-12-31T00:49:03.905Z,7.50
2018-12-31T00:51:33.373Z,7.50
2018-12-31T00:54:03.001Z,7.50
2018-12-31T00:56:32.506Z,7.50
2018-12-31T00:59:02.016Z,7.50
2018-12-31T01:01:31.698Z,7.50
2018-12-31T01:04:01.163Z,7.50
2018-12-31T01:06:30.694Z,7.50
2018-12-31T01:09:00.169Z,7.50
2018-12-31T01:11:30.019Z,7.60
2018-12-31T01:13:59.472Z,7.50
2018-12-31T01:16:28.945Z,7.60
2018-12-31T01:18:58.365Z,7.60
2018-12-31T01:21:27.757Z,7.60
2018-12-31T01:23:57.568Z,7.50
2018-12-31T01:26:26.958Z,7.60
2018-12-31T01:28:59.441Z,7.60
2018-12-31T01:31:28.905Z,7.60
2018-12-31T01:33:58.379Z,7.50
2018-12-31T01:36:28.252Z,7.50
2018-12-31T01:38:57.738Z,7.50
2018-12-31T01:41:27.303Z,7.50
2018-12-31T01:43:56.818Z,7.60
2018-12-31T01:46:26.359Z,7.60
2018-12-31T01:48:56.918Z,7.60
2018-12-31T01:51:26.458Z,7.60
2018-12-31T01:53:56.289Z,7.60
2018-12-31T01:56:26.025Z,7.60
2018-12-31T01:58:55.549Z,7.60
2018-12-31T02:01:25.092Z,7.60
2018-12-31T02:03:54.917Z,7.60
2018-12-31T02:06:24.434Z,7.60
2018-12-31T02:08:53.903Z,7.60
2018-12-31T02:11:23.430Z,7.60
2018-12-31T02:13:52.893Z,7.60
2018-12-31T02:16:22.784Z,7.60
2018-12-31T02:18:52.570Z,7.60
2018-12-31T02:21:22.396Z,7.60
2018-12-31T02:23:52.196Z,7.60
2018-12-31T02:26:23.057Z,7.60
2018-12-31T02:28:52.834Z,7.60
2018-12-31T02:31:22.862Z,7.60
2018-12-31T02:33:53.057Z,7.60
2018-12-31T02:36:22.562Z,7.60
2018-12-31T02:38:52.514Z,7.60
2018-12-31T02:41:22.032Z,7.70
2018-12-31T02:43:51.866Z,7.70
2018-12-31T02:46:21.742Z,7.60
2018-12-31T02:48:51.225Z,7.60
2018-12-31T02:51:20.985Z,7.60
2018-12-31T02:53:51.113Z,7.70
2018-12-31T02:56:20.993Z,7.70
2018-12-31T02:58:50.901Z,7.70
2018-12-31T03:01:20.400Z,7.70
2018-12-31T03:03:50.144Z,7.60
2018-12-31T03:06:19.932Z,7.70
2018-12-31T03:08:49.429Z,7.70
2018-12-31T03:11:18.892Z,7.70
2018-12-31T03:13:56.524Z,7.70
2018-12-31T03:16:26.354Z,7.70
2018-12-31T03:18:55.785Z,7.70
2018-12-31T03:21:25.649Z,7.70
2018-12-31T03:23:56.455Z,7.70
2018-12-31T03:26:25.961Z,7.70
2018-12-31T03:28:55.452Z,7.70
2018-12-31T03:31:25.235Z,7.70
2018-12-31T03:33:54.728Z,7.80
2018-12-31T03:36:25.107Z,7.70
2018-12-31T03:38:55.293Z,7.70
2018-12-31T03:41:24.757Z,7.70
2018-12-31T03:43:54.266Z,7.70
2018-12-31T03:46:23.767Z,7.70
2018-12-31T03:48:53.770Z,7.70
2018-12-31T03:51:23.257Z,7.70
2018-12-31T03:53:52.754Z,7.70
2018-12-31T03:56:22.843Z,7.70
2018-12-31T03:58:52.385Z,7.70
2018-12-31T04:01:22.160Z,7.70
2018-12-31T04:03:51.649Z,7.70
2018-12-31T04:06:21.520Z,7.70
2018-12-31T04:08:51.036Z,7.70
2018-12-31T04:11:20.512Z,7.70
2018-12-31T04:13:50.421Z,7.70
2018-12-31T04:16:19.908Z,7.70
2018-12-31T04:18:49.704Z,7.70
2018-12-31T04:21:19.191Z,7.70
2018-12-31T04:23:48.669Z,7.70
2018-12-31T04:26:20.937Z,7.70
2018-12-31T04:28:50.819Z,7.70
2018-12-31T04:31:20.614Z,7.70
2018-12-31T04:33:50.072Z,7.70
2018-12-31T04:36:19.946Z,7.70
2018-12-31T04:38:49.427Z,7.70
2018-12-31T04:41:18.904Z,7.70
2018-12-31T04:43:48.983Z,7.70
2018-12-31T04:46:19.488Z,7.70
2018-12-31T04:48:48.953Z,7.70
2018-12-31T04:51:18.363Z,7.70
2018-12-31T04:53:47.850Z,7.80
2018-12-31T04:56:17.736Z,7.80
2018-12-31T04:58:47.546Z,7.80
2018-12-31T05:01:17.013Z,7.80
2018-12-31T05:03:46.487Z,7.80
2018-12-31T05:06:16.678Z,7.80
2018-12-31T05:08:46.509Z,7.80
2018-12-31T05:11:16.403Z,7.80
2018-12-31T05:13:49.281Z,7.80
2018-12-31T05:16:18.702Z,7.80
2018-12-31T05:18:48.810Z,7.80
2018-12-31T05:21:18.301Z,7.80
2018-12-31T05:23:47.782Z,7.80
2018-12-31T05:26:17.909Z,7.80
2018-12-31T05:28:47.754Z,7.80
2018-12-31T05:31:17.248Z,7.80
2018-12-31T05:33:46.715Z,7.80
2018-12-31T05:36:16.193Z,7.80
2018-12-31T05:38:48.275Z,7.80
2018-12-31T05:41:17.930Z,7.80
2018-12-31T05:43:47.592Z,7.80
2018-12-31T05:46:17.060Z,7.80
2018-12-31T05:48:47.585Z,7.80
2018-12-31T05:51:17.033Z,7.80
2018-12-31T05:53:46.796Z,7.80
2018-12-31T05:56:16.203Z,7.80
2018-12-31T05:58:46.020Z,7.90
2018-12-31T06:01:16.143Z,7.80
2018-12-31T06:03:45.644Z,7.90
2018-12-31T06:06:15.880Z,7.80
2018-12-31T06:08:46.090Z,7.90
2018-12-31T06:11:15.555Z,7.90
2018-12-31T06:13:45.055Z,7.90
2018-12-31T06:16:14.526Z,7.90
2018-12-31T06:18:44.490Z,7.90
2018-12-31T06:21:14.932Z,7.90
2018-12-31T06:23:44.424Z,7.90
2018-12-31T06:26:14.214Z,7.90
2018-12-31T06:28:44.083Z,7.90
2018-12-31T06:31:13.625Z,7.90
2018-12-31T06:33:43.526Z,7.90
2018-12-31T06:36:13.310Z,7.90
2018-12-31T06:38:45.458Z,7.90
2018-12-31T06:41:15.278Z,7.90
2018-12-31T06:43:45.181Z,7.90
2018-12-31T06:46:14.661Z,7.90
2018-12-31T06:48:44.283Z,7.90
2018-12-31T06:52:02.323Z,7.90
2018-12-31T06:54:10.842Z,7.90
2018-12-31T06:56:40.945Z,7.90
2018-12-31T06:59:10.457Z,7.90
2018-12-31T07:01:39.953Z,7.90
2018-12-31T07:04:09.859Z,7.90
2018-12-31T07:07:18.144Z,7.90
2018-12-31T07:09:51.374Z,7.90
2018-12-31T07:12:21.457Z,7.90
2018-12-31T07:14:51.309Z,8.00
2018-12-31T07:17:20.771Z,8.00
2018-12-31T07:19:50.254Z,8.00
2018-12-31T07:22:20.082Z,8.00
2018-12-31T07:24:49.494Z,8.00
2018-12-31T07:27:19.257Z,8.00
2018-12-31T07:30:08.526Z,8.00
2018-12-31T07:32:38.281Z,8.00
2018-12-31T07:35:07.781Z,8.10
2018-12-31T07:37:37.594Z,8.10
2018-12-31T07:40:07.117Z,8.10
2018-12-31T07:42:36.593Z,8.10
2018-12-31T07:45:06.730Z,8.10
2018-12-31T07:47:36.571Z,8.10
2018-12-31T07:50:06.788Z,8.10
2018-12-31T07:52:36.610Z,8.20
2018-12-31T07:55:07.882Z,8.20
2018-12-31T07:57:37.316Z,8.10
2018-12-31T08:00:10.085Z,8.10
2018-12-31T08:02:40.467Z,8.10
2018-12-31T08:05:10.237Z,8.20
2018-12-31T08:07:39.762Z,8.10
2018-12-31T08:10:09.557Z,8.10
2018-12-31T08:12:39.041Z,8.10
2018-12-31T08:15:08.721Z,8.20
2018-12-31T08:17:38.517Z,8.20
2018-12-31T08:20:08.298Z,8.20
2018-12-31T08:22:38.921Z,8.20
2018-12-31T08:25:08.384Z,8.20
2018-12-31T08:27:37.909Z,8.20
2018-12-31T08:30:07.853Z,8.20
2018-12-31T08:32:37.694Z,8.20
2018-12-31T08:35:07.186Z,8.20
2018-12-31T08:37:36.689Z,8.20
2018-12-31T08:40:06.481Z,8.20
2018-12-31T08:42:36.304Z,8.20
2018-12-31T08:45:09.239Z,8.20
2018-12-31T08:47:39.638Z,8.20
2018-12-31T08:50:09.738Z,8.20
2018-12-31T08:52:39.221Z,8.20
2018-12-31T08:55:08.880Z,8.20
2018-12-31T08:57:38.436Z,8.20
2018-12-31T09:00:08.910Z,8.20
2018-12-31T09:02:38.782Z,8.20
2018-12-31T09:05:08.660Z,8.30
2018-12-31T09:07:38.426Z,8.30
2018-12-31T09:10:08.316Z,8.30
2018-12-31T09:12:37.776Z,8.30
2018-12-31T09:15:07.792Z,8.30
2018-12-31T09:17:37.979Z,8.30
2018-12-31T09:20:09.122Z,8.20
2018-12-31T09:22:38.602Z,8.30
2018-12-31T09:25:08.399Z,8.30
2018-12-31T09:27:38.263Z,8.30
2018-12-31T09:30:07.891Z,8.30
2018-12-31T09:32:37.469Z,8.30
2018-12-31T09:35:07.497Z,8.30
2018-12-31T09:37:36.969Z,8.30
2018-12-31T09:40:06.407Z,8.30
2018-12-31T09:42:37.818Z,8.30
2018-12-31T09:45:06.988Z,8.30
2018-12-31T09:47:36.862Z,8.40
2018-12-31T09:50:06.416Z,8.40
2018-12-31T09:52:35.914Z,8.40
2018-12-31T09:55:05.779Z,8.40
2018-12-31T09:57:35.617Z,8.40
2018-12-31T10:00:05.845Z,8.40
2018-12-31T10:02:35.715Z,8.40
2018-12-31T10:05:05.374Z,8.40
2018-12-31T10:07:34.874Z,8.40
2018-12-31T10:10:05.174Z,8.40
2018-12-31T10:12:37.913Z,8.40
2018-12-31T10:15:08.378Z,8.40
2018-12-31T10:17:37.860Z,8.40
2018-12-31T10:20:08.111Z,8.40
2018-12-31T10:22:38.433Z,8.40
2018-12-31T10:25:07.910Z,8.40
2018-12-31T10:27:37.396Z,8.40
2018-12-31T10:30:06.922Z,8.40
2018-12-31T10:32:36.416Z,8.40
2018-12-31T10:35:06.002Z,8.40
2018-12-31T10:37:35.770Z,8.40
2018-12-31T10:40:06.121Z,8.40
2018-12-31T10:42:35.593Z,8.40
2018-12-31T10:45:05.131Z,8.40
2018-12-31T10:47:34.620Z,8.40
2018-12-31T10:50:04.306Z,8.40
2018-12-31T10:52:34.058Z,8.40
2018-12-31T10:55:03.941Z,8.40
2018-12-31T10:57:33.802Z,8.40
2018-12-31T11:00:03.344Z,8.40
2018-12-31T11:02:33.091Z,8.50
2018-12-31T11:05:02.678Z,8.50
2018-12-31T11:07:32.159Z,8.50
2018-12-31T11:10:01.662Z,8.50
2018-12-31T11:12:31.436Z,8.50
2018-12-31T11:15:01.797Z,8.50
2018-12-31T11:17:31.282Z,8.50
2018-12-31T11:20:01.492Z,8.50
2018-12-31T11:22:31.324Z,8.50
2018-12-31T11:25:00.833Z,8.50
2018-12-31T11:27:30.233Z,8.50
2018-12-31T11:30:00.236Z,8.50
2018-12-31T11:32:30.409Z,8.50
2018-12-31T11:35:00.346Z,8.40
2018-12-31T11:37:34.831Z,8.50
2018-12-31T11:40:03.919Z,8.40
2018-12-31T11:42:34.049Z,8.50
2018-12-31T11:45:03.466Z,8.50
2018-12-31T11:47:32.960Z,8.50
2018-12-31T11:50:02.427Z,8.40
2018-12-31T11:52:31.909Z,8.40
2018-12-31T11:55:03.466Z,8.50
2018-12-31T11:57:32.809Z,8.40
2018-12-31T12:00:05.725Z,8.40
2018-12-31T12:02:35.565Z,8.50
2018-12-31T12:05:05.135Z,8.50
2018-12-31T12:07:34.646Z,8.50
2018-12-31T12:10:04.344Z,8.50
2018-12-31T12:12:34.495Z,8.50
2018-12-31T12:15:04.410Z,8.50
2018-12-31T12:17:33.914Z,8.50
2018-12-31T12:20:04.655Z,8.50
2018-12-31T12:22:34.766Z,8.50
2018-12-31T12:25:04.414Z,8.60
2018-12-31T12:27:34.185Z,8.60
2018-12-31T12:30:03.716Z,8.60
2018-12-31T12:32:33.217Z,8.60
2018-12-31T12:35:03.317Z,8.60
2018-12-31T12:37:32.809Z,8.60
2018-12-31T12:40:03.249Z,8.60
2018-12-31T12:42:32.761Z,8.60
2018-12-31T12:45:02.557Z,8.60
2018-12-31T12:47:32.073Z,8.60
2018-12-31T12:50:01.946Z,8.60
2018-12-31T12:52:31.820Z,8.70
2018-12-31T12:55:01.922Z,8.60
2018-12-31T12:57:32.046Z,8.60
2018-12-31T13:00:01.851Z,8.60
2018-12-31T13:02:32.066Z,8.60
2018-12-31T13:05:03.868Z,8.50
2018-12-31T13:07:33.697Z,8.60
2018-12-31T13:10:03.169Z,8.50
2018-12-31T13:12:34.093Z,8.50
2018-12-31T13:15:03.553Z,8.60
2018-12-31T13:17:33.017Z,8.50
2018-12-31T13:20:03.104Z,8.50
2018-12-31T13:22:32.569Z,8.60
2018-12-31T13:25:02.438Z,8.50
2018-12-31T13:27:31.950Z,8.50
2018-12-31T13:30:01.829Z,8.50
2018-12-31T13:32:32.104Z,8.60
2018-12-31T13:35:02.197Z,8.50
2018-12-31T13:37:32.009Z,8.50
2018-12-31T13:40:01.607Z,8.50
2018-12-31T13:42:31.077Z,8.50
2018-12-31T13:45:01.579Z,8.50
2018-12-31T13:47:31.060Z,8.60
2018-12-31T13:50:00.566Z,8.60
2018-12-31T13:52:30.073Z,8.50
2018-12-31T13:55:00.089Z,8.50
2018-12-31T13:57:29.629Z,8.50
2018-12-31T13:59:59.790Z,8.50
2018-12-31T14:02:29.278Z,8.50
2018-12-31T14:04:58.760Z,8.50
2018-12-31T14:07:28.433Z,8.50
2018-12-31T14:09:57.947Z,8.50
2018-12-31T14:12:27.409Z,8.50
2018-12-31T14:14:57.145Z,8.50
2018-12-31T14:17:26.653Z,8.50
2018-12-31T14:19:56.133Z,8.50
2018-12-31T14:22:25.996Z,8.50
2018-12-31T14:24:55.593Z,8.50
2018-12-31T14:27:25.094Z,8.50
2018-12-31T14:29:54.939Z,8.50
2018-12-31T14:32:24.438Z,8.50
2018-12-31T14:34:59.997Z,8.50
2018-12-31T14:37:29.496Z,8.50
2018-12-31T14:39:59.278Z,8.50
2018-12-31T14:42:28.793Z,8.50
2018-12-31T14:44:58.639Z,8.50
2018-12-31T14:47:28.520Z,8.50
2018-12-31T14:49:57.981Z,8.50
2018-12-31T14:52:27.462Z,8.60
2018-12-31T14:54:57.354Z,8.50
2018-12-31T14:57:27.502Z,8.50
2018-12-31T14:59:57.365Z,8.50
2018-12-31T15:02:26.833Z,8.50
2018-12-31T15:04:56.705Z,8.50
2018-12-31T15:07:26.201Z,8.50
2018-12-31T15:09:55.969Z,8.50
2018-12-31T15:12:26.114Z,8.50
2018-12-31T15:14:56.042Z,8.50
2018-12-31T15:17:25.853Z,8.50
2018-12-31T15:20:02.066Z,8.40
2018-12-31T15:22:31.592Z,8.50
2018-12-31T15:25:01.429Z,8.40
2018-12-31T15:27:31.305Z,8.40
2018-12-31T15:30:01.668Z,8.40
2018-12-31T15:32:34.693Z,8.40
2018-12-31T15:35:04.774Z,8.40
2018-12-31T15:37:34.249Z,8.40
2018-12-31T15:40:04.577Z,8.40
2018-12-31T15:42:34.419Z,8.40
2018-12-31T15:45:03.929Z,8.40
2018-12-31T15:47:33.426Z,8.40
2018-12-31T15:50:03.378Z,8.40
2018-12-31T15:52:33.686Z,8.40
2018-12-31T15:55:03.148Z,8.30
2018-12-31T15:57:36.178Z,8.30
2018-12-31T16:00:07.124Z,8.30
2018-12-31T16:02:37.055Z,8.30
2018-12-31T16:05:10.204Z,8.30
2018-12-31T16:07:45.534Z,8.30
2018-12-31T16:10:11.989Z,8.30
2018-12-31T16:12:42.841Z,8.40
2018-12-31T16:15:12.437Z,8.30
2018-12-31T16:17:42.318Z,8.30
2018-12-31T16:20:12.093Z,8.30
2018-12-31T16:22:42.278Z,8.30
2018-12-31T16:25:12.386Z,8.30
2018-12-31T16:27:42.219Z,8.30
2018-12-31T16:30:11.709Z,8.30
2018-12-31T16:32:41.313Z,8.30
2018-12-31T16:35:11.172Z,8.30
2018-12-31T16:37:41.046Z,8.30
2018-12-31T16:40:13.329Z,8.30
2018-12-31T16:42:43.166Z,8.30
2018-12-31T16:45:12.641Z,8.30
2018-12-31T16:47:42.457Z,8.30
2018-12-31T16:50:11.918Z,8.20
2018-12-31T16:52:41.492Z,8.30
2018-12-31T16:55:11.358Z,8.30
2018-12-31T16:57:40.864Z,8.30
2018-12-31T17:00:10.726Z,8.20
2018-12-31T17:02:40.728Z,8.30
2018-12-31T17:05:10.198Z,8.20
2018-12-31T17:07:39.697Z,8.20
2018-12-31T17:10:10.671Z,8.30
2018-12-31T17:12:42.441Z,8.30
2018-12-31T17:15:11.840Z,8.30
2018-12-31T17:17:41.312Z,8.20
2018-12-31T17:20:10.813Z,8.20
2018-12-31T17:22:40.690Z,8.20
2018-12-31T17:25:10.388Z,8.20
2018-12-31T17:27:40.578Z,8.20
2018-12-31T17:30:10.686Z,8.20
2018-12-31T17:32:40.537Z,8.20
2018-12-31T17:35:10.426Z,8.20
2018-12-31T17:37:40.242Z,8.20
2018-12-31T17:40:09.717Z,8.20
2018-12-31T17:42:39.209Z,8.20
2018-12-31T17:45:09.001Z,8.20
2018-12-31T17:47:38.822Z,8.20
2018-12-31T17:50:08.659Z,8.20
2018-12-31T17:52:39.104Z,8.20
2018-12-31T17:55:08.586Z,8.20
2018-12-31T17:57:38.094Z,8.20
2018-12-31T18:00:09.390Z,8.20
2018-12-31T18:02:38.864Z,8.20
2018-12-31T18:05:08.393Z,8.20
2018-12-31T18:07:38.528Z,8.20
2018-12-31T18:10:09.682Z,8.20
2018-12-31T18:12:39.404Z,8.20
2018-12-31T18:15:11.048Z,8.20
2018-12-31T18:17:40.842Z,8.20
2018-12-31T18:20:11.280Z,8.20
2018-12-31T18:22:41.173Z,8.20
2018-12-31T18:25:15.724Z,8.20
2018-12-31T18:27:45.549Z,8.20
2018-12-31T18:30:15.044Z,8.20
2018-12-31T18:32:44.597Z,8.20
2018-12-31T18:35:14.185Z,8.20
2018-12-31T18:37:43.688Z,8.20
2018-12-31T18:40:13.444Z,8.20
2018-12-31T18:42:42.925Z,8.20
2018-12-31T18:45:13.072Z,8.20
2018-12-31T18:47:42.559Z,8.20
2018-12-31T18:50:12.047Z,8.20
2018-12-31T18:52:41.525Z,8.20
2018-12-31T18:55:11.352Z,8.20
2018-12-31T18:57:41.530Z,8.20
2018-12-31T19:00:11.109Z,8.20
2018-12-31T19:02:41.352Z,8.20
2018-12-31T19:05:11.878Z,8.20
2018-12-31T19:07:41.717Z,8.20
2018-12-31T19:10:11.498Z,8.20
2018-12-31T19:12:40.957Z,8.20
2018-12-31T19:15:10.814Z,8.10
2018-12-31T19:17:40.734Z,8.10
2018-12-31T19:20:10.233Z,8.10
2018-12-31T19:22:40.078Z,8.10
2018-12-31T19:25:11.264Z,8.10
2018-12-31T19:27:41.010Z,8.10
2018-12-31T19:30:10.610Z,8.00
2018-12-31T19:32:40.792Z,8.00
2018-12-31T19:35:10.592Z,7.90
2018-12-31T19:37:40.075Z,7.90
2018-12-31T19:40:09.624Z,7.90
2018-12-31T19:42:39.462Z,7.80
2018-12-31T19:45:09.278Z,7.80
2018-12-31T19:47:39.162Z,7.80
2018-12-31T19:50:08.653Z,7.80
2018-12-31T19:52:38.419Z,7.80
2018-12-31T19:55:07.894Z,7.80
2018-12-31T19:57:38.062Z,7.70
2018-12-31T20:00:08.986Z,7.80
2018-12-31T20:02:39.306Z,7.80
2018-12-31T20:05:08.774Z,7.80
2018-12-31T20:07:38.635Z,7.80
2018-12-31T20:10:08.134Z,7.80
2018-12-31T20:12:38.036Z,7.70
2018-12-31T20:15:07.641Z,7.70
2018-12-31T20:17:37.179Z,7.70
2018-12-31T20:20:06.857Z,7.70
2018-12-31T20:22:36.322Z,7.70
2018-12-31T20:25:25.432Z,7.70
2018-12-31T20:27:55.202Z,7.70
2018-12-31T20:30:25.039Z,7.70
2018-12-31T20:32:54.545Z,7.60
2018-12-31T20:35:24.003Z,7.60
2018-12-31T20:37:53.499Z,7.60
2018-12-31T20:40:22.974Z,7.50
2018-12-31T20:42:54.056Z,7.50
2018-12-31T20:45:23.830Z,7.50
2018-12-31T20:48:01.478Z,7.50
2018-12-31T20:50:24.685Z,7.50
2018-12-31T20:52:54.501Z,7.40
2018-12-31T20:55:24.301Z,7.40
2018-12-31T20:57:54.429Z,7.40
2018-12-31T21:00:24.244Z,7.30
2018-12-31T21:02:53.867Z,7.30
2018-12-31T21:05:23.331Z,7.30
2018-12-31T21:07:52.796Z,7.40
2018-12-31T21:10:22.664Z,7.40
2018-12-31T21:12:52.133Z,7.40
2018-12-31T21:15:21.710Z,7.40
2018-12-31T21:17:51.196Z,7.40
2018-12-31T21:20:21.019Z,7.40
2018-12-31T21:22:50.616Z,7.40
2018-12-31T21:25:20.463Z,7.40
2018-12-31T21:27:50.264Z,7.40
2018-12-31T21:30:19.865Z,7.40
2018-12-31T21:32:49.660Z,7.40
2018-12-31T21:35:19.573Z,7.40
2018-12-31T21:37:49.430Z,7.40
2018-12-31T21:40:18.929Z,7.30
2018-12-31T21:42:48.437Z,7.40
2018-12-31T21:45:17.889Z,7.30
2018-12-31T21:47:47.344Z,7.30
2018-12-31T21:50:16.833Z,7.30
2018-12-31T21:52:47.788Z,7.30
2018-12-31T21:55:17.417Z,7.30
2018-12-31T21:57:46.909Z,7.30
2018-12-31T22:00:16.389Z,7.30
2018-12-31T22:02:46.182Z,7.30
2018-12-31T22:05:15.998Z,7.30
2018-12-31T22:07:46.110Z,7.30
2018-12-31T22:10:15.931Z,7.30
2018-12-31T22:12:45.434Z,7.30
2018-12-31T22:15:14.897Z,7.30
2018-12-31T22:17:44.396Z,7.30
2018-12-31T22:20:13.857Z,7.30
2018-12-31T22:22:43.657Z,7.30
2018-12-31T22:25:13.457Z,7.40
2018-12-31T22:27:42.940Z,7.40
2018-12-31T22:30:12.413Z,7.40
2018-12-31T22:32:41.885Z,7.40
2018-12-31T22:35:11.693Z,7.40
2018-12-31T22:37:41.173Z,7.40
2018-12-31T22:40:10.674Z,7.40
2018-12-31T22:42:40.518Z,7.40
2018-12-31T22:45:10.305Z,7.40
2018-12-31T22:47:39.904Z,7.40
2018-12-31T22:50:11.180Z,7.40
2018-12-31T22:52:41.101Z,7.40
2018-12-31T22:55:11.169Z,7.40
2018-12-31T22:57:40.702Z,7.40
2018-12-31T23:00:11.963Z,7.40
2018-12-31T23:02:41.666Z,7.50
2018-12-31T23:05:13.070Z,7.50
2018-12-31T23:07:42.905Z,7.50
2018-12-31T23:10:12.370Z,7.50
2018-12-31T23:12:42.197Z,7.50
2018-12-31T23:15:15.260Z,7.50
2018-12-31T23:17:45.060Z,7.50
2018-12-31T23:20:14.764Z,7.50
2018-12-31T23:22:44.244Z,7.50
2018-12-31T23:25:14.024Z,7.50
2018-12-31T23:27:43.806Z,7.50
2018-12-31T23:30:13.570Z,7.50
2018-12-31T23:32:43.033Z,7.50
2018-12-31T23:35:12.812Z,7.50
2018-12-31T23:37:44.179Z,7.50
2018-12-31T23:40:13.645Z,7.50
2018-12-31T23:42:44.301Z,7.50
2018-12-31T23:45:13.984Z,7.40
2018-12-31T23:47:43.481Z,7.40
2018-12-31T23:50:13.052Z,7.40
2018-12-31T23:52:42.858Z,7.40
2018-12-31T23:55:12.691Z,7.40
2018-12-31T23:57:42.185Z,7.40
